FW4667 Port Townsend WA US current weather conditions

sailwx.info

Wind from 288 at 6 knots gusting 11

Air temperature 8.3° C
Dewpoint 5.3° C

Last reported at 2020-Feb-22 21:03 UTC.
Time now 2020-Feb-22 22:03 UTC

Location: N 48°07' W 122°45'.
View on Google Maps.

See reports from other nearby stations

  
Tides and Currents Weather Stations Pressure Air Temp Water Temp Dewpoint Dewpoint Depression Visibility Wind Speed Wind Dir Waves Ship Positions
date/time (UTC)wind fromknots sea level pressurealtimeterstation pressurevisibilityair tempwater tempwave heightnotes
2020-Feb-22 21:03 288 6 gusting 11 8.3
2020-Feb-22 20:58 278 6 gusting 11 8.3
2020-Feb-22 20:53 305 6 gusting 9 8.3
2020-Feb-22 20:48 298 6 gusting 11 8.3
2020-Feb-22 20:43 288 6 gusting 11 8.3
2020-Feb-22 20:38 304 6 gusting 9 8.3
2020-Feb-22 20:33 312 5 gusting 9 8.3
2020-Feb-22 20:28 342 5 gusting 9 8.3
2020-Feb-22 20:23 278 6 gusting 10 8.3
2020-Feb-22 20:18 281 6 gusting 13 8.3
2020-Feb-22 20:13 278 6 gusting 13 8.3
2020-Feb-22 20:08 293 6 gusting 13 8.3
2020-Feb-22 20:03 001 4 gusting 8 8.3
2020-Feb-22 19:58 302 5 gusting 13 8.9
2020-Feb-22 19:53 251 6 gusting 13 8.3
2020-Feb-22 19:48 290 6 gusting 13 8.9
2020-Feb-22 19:43 307 5 gusting 12 8.9
2020-Feb-22 19:38 263 5 gusting 12 8.9
2020-Feb-22 19:33 290 6 gusting 13 8.9
2020-Feb-22 19:28 269 8 gusting 14 8.3
2020-Feb-22 19:23 273 8 gusting 14 8.9
2020-Feb-22 19:18 280 6 gusting 14 8.9
2020-Feb-22 19:13 278 6 gusting 13 8.9
2020-Feb-22 19:08 231 6 gusting 11 8.3
2020-Feb-22 19:03 223 6 gusting 11 8.3
2020-Feb-22 18:58 323 5 gusting 11 8.3
2020-Feb-22 18:53 330 4 gusting 7 7.8
2020-Feb-22 18:48 311 3 gusting 7 7.8
2020-Feb-22 18:43 308 2 gusting 5 7.8
2020-Feb-22 18:38 357 1 gusting 4 7.8
2020-Feb-22 18:33 322 1 gusting 4 7.8
2020-Feb-22 18:28 241 1 gusting 2 7.8
2020-Feb-22 18:23 022 1 gusting 4 7.2
2020-Feb-22 18:18 295 1 gusting 4 7.2
2020-Feb-22 18:13 326 2 gusting 4 7.2
2020-Feb-22 18:08 039 1 gusting 4 6.7
2020-Feb-22 18:03 011 0 gusting 2 6.7
2020-Feb-22 17:57 081 1 gusting 5 6.7
2020-Feb-22 17:52 101 4 gusting 6 6.7
2020-Feb-22 17:47 084 4 gusting 6 6.7
2020-Feb-22 17:42 067 4 gusting 6 6.7
2020-Feb-22 17:37 091 3 gusting 6 6.7
2020-Feb-22 17:32 090 0 gusting 4 6.7
2020-Feb-22 17:27 088 0 gusting 2 6.7
2020-Feb-22 17:22 068 1 gusting 2 6.1
2020-Feb-22 17:17 078 1 gusting 2 6.1
2020-Feb-22 17:12 065 0 gusting 2 6.1
2020-Feb-22 17:07 259 6.1
2020-Feb-22 17:02 259 0 gusting 1 6.1
2020-Feb-22 16:57 296 1 gusting 3 6.1
2020-Feb-22 16:52 239 2 gusting 6 6.1
2020-Feb-22 16:47 277 3 gusting 6 6.7
2020-Feb-22 16:42 257 3 gusting 5 6.7
2020-Feb-22 16:37 205 3 gusting 5 6.7
2020-Feb-22 16:32 195 3 gusting 5 6.7
2020-Feb-22 16:27 144 4 gusting 5 6.7
2020-Feb-22 16:22 141 4 gusting 6 6.7
2020-Feb-22 16:17 140 5 gusting 6 6.7
2020-Feb-22 16:12 147 5 gusting 6 6.7
2020-Feb-22 16:07 133 5 gusting 6 6.7
2020-Feb-22 16:02 143 4 gusting 6 6.7
2020-Feb-22 15:57 141 6 gusting 8 6.7
2020-Feb-22 15:52 129 6 gusting 8 6.7
2020-Feb-22 15:47 139 5 gusting 7 6.7
2020-Feb-22 15:42 134 4 gusting 6 6.7
2020-Feb-22 15:37 142 5 gusting 6 6.7
2020-Feb-22 15:32 139 6 gusting 7 6.7
2020-Feb-22 15:27 139 6 gusting 9 6.7
2020-Feb-22 15:22 142 7 gusting 10 6.7
2020-Feb-22 15:17 138 8 gusting 12 6.7
2020-Feb-22 15:12 138 9 gusting 12 6.7
2020-Feb-22 15:07 124 8 gusting 12 6.7
2020-Feb-22 15:02 140 9 gusting 12 6.7
2020-Feb-22 14:57 099 9 gusting 12 6.7
2020-Feb-22 14:52 111 9 gusting 12 6.7
2020-Feb-22 14:47 121 9 gusting 12 6.7
2020-Feb-22 14:42 118 9 gusting 12 6.7
2020-Feb-22 14:37 110 9 gusting 13 6.7
2020-Feb-22 14:32 117 9 gusting 13 6.7
2020-Feb-22 14:27 117 8 gusting 12 6.7
2020-Feb-22 14:22 127 8 gusting 11 6.1
2020-Feb-22 14:17 102 9 gusting 12 6.1
2020-Feb-22 14:12 121 9 gusting 12 6.1
2020-Feb-22 14:07 110 9 gusting 12 6.1
2020-Feb-22 14:02 128 11 gusting 14 6.1
2020-Feb-22 13:57 134 13 gusting 17 6.1
2020-Feb-22 13:52 127 12 gusting 17 6.1
2020-Feb-22 13:47 136 10 gusting 14 6.1
2020-Feb-22 13:42 122 10 gusting 14 6.1
2020-Feb-22 13:37 127 11 gusting 14 5.6
2020-Feb-22 13:32 136 11 gusting 14 6.1
2020-Feb-22 13:27 129 11 gusting 14 6.1
2020-Feb-22 13:22 129 10 gusting 14 5.6
2020-Feb-22 13:17 132 10 gusting 13 5.6
2020-Feb-22 13:12 146 11 gusting 15 5.6
2020-Feb-22 13:07 140 13 gusting 18 5.6
2020-Feb-22 13:02 149 13 gusting 18 6.1
2020-Feb-22 12:57 146 13 gusting 16 6.1
2020-Feb-22 12:51 132 12 gusting 16 6.1
2020-Feb-22 12:46 110 13 gusting 16 6.1
2020-Feb-22 12:42 148 13 gusting 17 6.1
2020-Feb-22 12:36 141 13 gusting 17 6.1
2020-Feb-22 12:31 127 12 gusting 17 6.1
2020-Feb-22 12:26 133 12 gusting 15 6.1
2020-Feb-22 12:21 139 13 gusting 15 6.1
2020-Feb-22 12:16 131 13 gusting 17 6.1
2020-Feb-22 12:11 125 13 gusting 17 6.1
2020-Feb-22 12:06 135 13 gusting 17 6.1
2020-Feb-22 12:01 125 12 gusting 16 6.1
2020-Feb-22 11:56 127 12 gusting 15 6.1
2020-Feb-22 11:51 131 12 gusting 15 6.1
2020-Feb-22 11:46 131 13 gusting 15 6.1
2020-Feb-22 11:41 126 13 gusting 15 6.1
2020-Feb-22 11:36 128 13 gusting 15 6.1
2020-Feb-22 11:31 120 13 gusting 17 6.1
2020-Feb-22 11:26 125 13 gusting 17 6.1
2020-Feb-22 11:21 121 13 gusting 16 6.7
2020-Feb-22 11:16 117 13 gusting 16 6.7
2020-Feb-22 11:11 125 14 gusting 17 6.7
2020-Feb-22 11:06 121 13 gusting 17 6.7
2020-Feb-22 11:01 129 13 gusting 16 6.7
2020-Feb-22 10:56 123 13 gusting 16 6.7
2020-Feb-22 10:51 120 13 gusting 16 6.7
2020-Feb-22 10:46 116 11 gusting 14 6.7
2020-Feb-22 10:41 122 9 gusting 12 6.7
2020-Feb-22 10:36 120 9 gusting 12 6.7
2020-Feb-22 10:31 119 9 gusting 12 6.7
2020-Feb-22 10:26 124 9 gusting 13 6.7
2020-Feb-22 10:21 134 9 gusting 13 6.7
2020-Feb-22 10:16 113 6 gusting 11 6.7
2020-Feb-22 10:11 139 5 gusting 7 6.1
2020-Feb-22 10:06 140 5 gusting 6 6.1
2020-Feb-22 10:01 135 5 gusting 6 6.1
2020-Feb-22 09:56 144 5 gusting 6 6.1
2020-Feb-22 09:51 178 6 gusting 7 6.1
2020-Feb-22 09:46 153 6 gusting 7 6.1
2020-Feb-22 09:41 141 5 gusting 7 6.1
2020-Feb-22 09:36 139 3 gusting 6 6.1
2020-Feb-22 09:31 168 2 gusting 5 6.1
2020-Feb-22 09:26 166 2 gusting 4 6.1
2020-Feb-22 09:21 148 2 gusting 4 6.1
2020-Feb-22 09:16 134 2 gusting 4 6.1
2020-Feb-22 09:11 143 3 gusting 6 6.1
2020-Feb-22 09:06 153 4 gusting 6 6.1
2020-Feb-22 09:01 143 5 gusting 6 6.1
2020-Feb-22 08:56 142 5 gusting 6 6.1
2020-Feb-22 08:51 146 6 gusting 6 6.1
2020-Feb-22 08:46 160 6 gusting 8 6.7
2020-Feb-22 08:41 133 6 gusting 8 6.7
2020-Feb-22 08:36 136 6 gusting 7 6.7
2020-Feb-22 08:31 121 5 gusting 7 6.7
2020-Feb-22 08:26 124 4 gusting 6 6.7
2020-Feb-22 08:21 136 3 gusting 5 7.2
2020-Feb-22 08:16 203 2 gusting 4 6.7
2020-Feb-22 08:11 203 2 gusting 4 7.2
2020-Feb-22 08:06 169 2 gusting 3 6.7
2020-Feb-22 08:01 193 1 gusting 3 6.7
2020-Feb-22 07:56 183 1 gusting 3 6.7
2020-Feb-22 07:51 237 1 gusting 4 7.2
2020-Feb-22 07:46 242 1 gusting 4 6.7
2020-Feb-22 07:41 231 1 gusting 3 6.7
2020-Feb-22 07:36 199 2 gusting 3 7.2
2020-Feb-22 07:31 190 2 gusting 3 7.2
2020-Feb-22 07:26 222 2 gusting 3 7.2
2020-Feb-22 07:21 255 2 gusting 4 7.2
2020-Feb-22 07:16 209 2 gusting 4 7.2
2020-Feb-22 07:11 197 2 gusting 3 7.2
2020-Feb-22 07:06 218 2 gusting 5 7.2
2020-Feb-22 07:01 267 2 gusting 5 7.2
2020-Feb-22 06:56 229 1 gusting 5 7.2
2020-Feb-22 06:51 264 2 gusting 6 7.2
2020-Feb-22 06:46 274 3 gusting 6 7.2
2020-Feb-22 06:41 279 3 gusting 6 7.2
2020-Feb-22 06:36 259 3 gusting 6 7.2
2020-Feb-22 06:31 272 3 gusting 6 7.2
2020-Feb-22 06:26 254 3 gusting 6 7.2
2020-Feb-22 06:21 250 2 gusting 5 7.2
2020-Feb-22 06:16 252 3 gusting 6 7.2
2020-Feb-22 06:11 287 5 gusting 8 7.2
2020-Feb-22 06:06 288 5 gusting 8 7.2
2020-Feb-22 06:01 279 4 gusting 7 7.2
2020-Feb-22 05:56 258 4 gusting 7 7.2
2020-Feb-22 05:51 305 4 gusting 8 7.2
2020-Feb-22 05:46 293 5 gusting 8 7.2
2020-Feb-22 05:41 258 6 gusting 8 7.2
2020-Feb-22 05:36 299 6 gusting 8 7.2
2020-Feb-22 05:31 304 5 gusting 8 7.2
2020-Feb-22 05:26 284 5 gusting 8 7.2
2020-Feb-22 05:21 271 5 gusting 8 7.2
2020-Feb-22 05:16 293 5 gusting 8 7.2
2020-Feb-22 05:11 259 6 gusting 8 7.2
2020-Feb-22 05:06 285 6 gusting 8 7.2
2020-Feb-22 05:01 293 6 gusting 9 7.2
2020-Feb-22 04:56 272 6 gusting 11 7.2
2020-Feb-22 04:51 276 6 gusting 11 7.2
2020-Feb-22 04:46 290 6 gusting 9 7.2
2020-Feb-22 04:41 284 6 gusting 10 7.2
2020-Feb-22 04:36 275 6 gusting 10 7.2
2020-Feb-22 04:31 240 6 gusting 10 7.2
2020-Feb-22 04:26 265 6 gusting 10 7.2
2020-Feb-22 04:21 260 6 gusting 11 7.2
2020-Feb-22 04:16 272 6 gusting 11 7.2
2020-Feb-22 04:11 258 6 gusting 10 7.2
2020-Feb-22 04:06 275 6 gusting 10 7.2
2020-Feb-22 04:01 282 6 gusting 10 7.2
2020-Feb-22 03:56 266 6 gusting 9 7.2
2020-Feb-22 03:50 309 6 gusting 9 7.2
2020-Feb-22 03:45 285 6 gusting 9 7.2
2020-Feb-22 03:40 264 6 gusting 9 7.2
2020-Feb-22 03:35 266 6 gusting 13 7.2
2020-Feb-22 03:30 271 6 gusting 13 7.8
2020-Feb-22 03:25 292 5 gusting 10 7.8
2020-Feb-22 03:20 293 5 gusting 10 7.8
2020-Feb-22 03:15 261 5 gusting 8 7.8
2020-Feb-22 03:10 281 5 gusting 8 7.8
2020-Feb-22 03:05 272 5 gusting 8 7.8
2020-Feb-22 03:00 267 5 gusting 8 7.8
2020-Feb-22 02:55 281 5 gusting 8 7.8
2020-Feb-22 02:50 257 5 gusting 8 7.8
2020-Feb-22 02:45 271 5 gusting 9 7.8
2020-Feb-22 02:40 278 5 gusting 9 7.8
2020-Feb-22 02:35 277 4 gusting 7 7.8
2020-Feb-22 02:30 292 3 gusting 6 7.8
2020-Feb-22 02:25 290 3 gusting 6 7.8
2020-Feb-22 02:20 330 2 gusting 5 7.8
2020-Feb-22 02:15 286 1 gusting 5 7.8
2020-Feb-22 02:10 271 0 gusting 3 7.8
2020-Feb-22 02:05 263 0 gusting 1 7.8
2020-Feb-22 02:00 262 0 gusting 1 7.8
2020-Feb-22 01:55 257 0 gusting 1 7.8
2020-Feb-22 01:50 254 7.8
2020-Feb-22 01:45 309 0 gusting 1 8.3
2020-Feb-22 01:40 338 0 gusting 3 8.3
2020-Feb-22 01:35 263 0 gusting 3 8.3
2020-Feb-22 01:30 276 2 gusting 6 8.3
2020-Feb-22 01:25 285 2 gusting 6 8.3
2020-Feb-22 01:20 283 2 gusting 6 8.3
2020-Feb-22 01:15 290 3 gusting 6 8.3
2020-Feb-22 01:10 302 2 gusting 6 8.3
2020-Feb-22 01:05 289 2 gusting 5 8.3
2020-Feb-22 01:00 271 2 gusting 6 8.3
2020-Feb-22 00:55 319 3 gusting 6 8.9
2020-Feb-22 00:50 292 3 gusting 6 8.9
2020-Feb-22 00:45 293 1 gusting 6 8.9
2020-Feb-22 00:40 219 0 gusting 3 8.9
2020-Feb-22 00:35 281 2 gusting 5 8.9
2020-Feb-22 00:30 286 2 gusting 5 9.4
2020-Feb-22 00:25 295 1 gusting 4 9.4
2020-Feb-22 00:20 293 0 gusting 3 9.4
2020-Feb-22 00:15 140 9.4
2020-Feb-22 00:10 130 9.4
2020-Feb-22 00:05 132 9.4
2020-Feb-22 00:00 147 0 gusting 1 9.4
2020-Feb-21 23:55 209 0 gusting 3 8.9
2020-Feb-21 23:50 150 1 gusting 3 8.9
2020-Feb-21 23:45 276 1 gusting 3 8.9
2020-Feb-21 23:40 290 2 gusting 4 8.9
2020-Feb-21 23:35 284 2 gusting 4 8.9
2020-Feb-21 23:30 291 3 gusting 6 8.9
2020-Feb-21 23:25 255 2 gusting 6 8.9
2020-Feb-21 23:20 291 2 gusting 6 8.9
2020-Feb-21 23:15 314 4 gusting 6 8.3
2020-Feb-21 23:10 212 4 gusting 6 8.3
2020-Feb-21 23:05 314 4 gusting 6 8.3
2020-Feb-21 23:00 317 4 gusting 6 8.3
2020-Feb-21 22:55 333 4 gusting 6 8.3
2020-Feb-21 22:50 319 4 gusting 5 8.3
2020-Feb-21 22:40 358 2 gusting 4 8.3
2020-Feb-21 22:35 332 2 gusting 4 8.9
2020-Feb-21 22:30 043 2 gusting 4 8.3
2020-Feb-21 22:25 050 2 gusting 3 8.3
2020-Feb-21 22:20 065 1 gusting 3 8.3
2020-Feb-21 22:15 052 2 gusting 3 8.3
2020-Feb-21 22:10 063 2 gusting 3 8.3
2020-Feb-21 22:05 059 1 gusting 3 8.3
2020-Feb-21 22:00 051 2 gusting 3 8.3
2020-Feb-21 21:55 056 1 gusting 3 8.9
2020-Feb-21 21:50 034 0 gusting 2 10.0
2020-Feb-21 21:45 151 0 gusting 1 10.0
2020-Feb-21 21:39 145 0 gusting 1 10.0
2020-Feb-21 21:34 108 0 gusting 1 9.4
2020-Feb-21 21:30 188 1 gusting 2 9.4
2020-Feb-21 21:24 221 1 gusting 3 9.4
2020-Feb-21 21:19 162 2 gusting 4 8.9
2020-Feb-21 21:14 110 3 gusting 5 8.3
2020-Feb-21 21:09 120 4 gusting 6 8.3
2020-Feb-21 21:04 143 4 gusting 6 7.8
2020-Feb-21 20:59 140 4 gusting 6 7.8
2020-Feb-21 20:54 131 5 gusting 6 7.8
2020-Feb-21 20:49 125 5 gusting 6 7.8
2020-Feb-21 20:44 124 5 gusting 6 7.2
2020-Feb-21 20:39 125 5 gusting 6 7.2
2020-Feb-21 20:34 113 5 gusting 6 7.2
2020-Feb-21 20:29 122 5 gusting 6 7.2
2020-Feb-21 20:24 126 5 gusting 6 7.2
2020-Feb-21 20:19 130 5 gusting 6 7.2
2020-Feb-21 20:14 129 5 gusting 6 7.2
2020-Feb-21 20:09 129 5 gusting 6 7.2
2020-Feb-21 20:04 120 4 gusting 6 7.2
2020-Feb-21 19:59 120 3 gusting 5 7.2
2020-Feb-21 19:54 133 3 gusting 5 7.2
2020-Feb-21 19:49 130 3 gusting 4 7.2
2020-Feb-21 19:44 108 3 gusting 4 7.2
2020-Feb-21 19:39 128 3 gusting 4 7.2
2020-Feb-21 19:34 119 3 gusting 5 6.7
2020-Feb-21 19:29 162 4 gusting 6 6.7
2020-Feb-21 19:24 118 5 gusting 6 6.7
2020-Feb-21 19:19 130 5 gusting 6 6.7
2020-Feb-21 19:14 120 5 gusting 6 6.7
2020-Feb-21 19:09 128 5 gusting 6 6.7
2020-Feb-21 19:04 127 5 gusting 6 6.7
2020-Feb-21 18:59 122 6 gusting 7 6.1
2020-Feb-21 18:54 122 6 gusting 7 6.1
2020-Feb-21 18:49 122 6 gusting 7 6.1
2020-Feb-21 18:44 123 6 gusting 8 6.1
2020-Feb-21 18:39 146 6 gusting 9 6.1
2020-Feb-21 18:34 121 6 gusting 9 6.1
2020-Feb-21 18:29 134 7 gusting 10 6.1
2020-Feb-21 18:24 122 7 gusting 10 6.1
2020-Feb-21 18:19 124 6 gusting 9 6.1
2020-Feb-21 18:14 126 5 gusting 9 6.1
2020-Feb-21 18:09 130 3 gusting 7 6.1
2020-Feb-21 18:04 192 3 gusting 5 6.1
2020-Feb-21 17:59 161 3 gusting 5 6.1
2020-Feb-21 17:54 143 2 gusting 4 6.1
2020-Feb-21 17:49 143 2 gusting 5 5.6
2020-Feb-21 17:44 150 2 gusting 5 5.6
2020-Feb-21 17:39 152 2 gusting 4 5.6
2020-Feb-21 17:34 207 2 gusting 5 5.6
2020-Feb-21 17:29 138 3 gusting 5 5.6
2020-Feb-21 17:24 147 3 gusting 5 5.6
2020-Feb-21 17:19 138 4 gusting 5 5.6
2020-Feb-21 17:14 143 3 gusting 5 6.1
2020-Feb-21 17:09 148 3 gusting 4 6.1
2020-Feb-21 17:04 140 2 gusting 4 6.1
2020-Feb-21 16:59 147 2 gusting 4 6.1
2020-Feb-21 16:54 191 2 gusting 4 5.6
2020-Feb-21 16:49 189 2 gusting 4 5.6
2020-Feb-21 16:44 141 3 gusting 4 5.6
2020-Feb-21 16:38 131 3 gusting 4 5.6
2020-Feb-21 16:34 135 3 gusting 4 5.0
2020-Feb-21 16:28 139 4 gusting 5 5.0
2020-Feb-21 16:23 132 3 gusting 5 5.0
2020-Feb-21 16:18 128 2 gusting 4 5.0
2020-Feb-21 16:13 136 3 gusting 4 4.4
2020-Feb-21 16:08 148 3 gusting 5 3.9
2020-Feb-21 16:03 143 4 gusting 5 3.9
2020-Feb-21 15:58 135 4 gusting 5 3.9
2020-Feb-21 15:53 135 4 gusting 5 3.9
2020-Feb-21 15:48 139 4 gusting 6 3.9
2020-Feb-21 15:43 139 3 gusting 6 3.9
2020-Feb-21 15:38 138 2 gusting 4 3.9
2020-Feb-21 15:33 148 2 gusting 3 3.9
2020-Feb-21 15:28 216 2 gusting 3 3.3
2020-Feb-21 15:23 196 1 gusting 3 3.3
2020-Feb-21 15:18 207 1 gusting 3 3.3
2020-Feb-21 15:13 229 1 gusting 3 3.3
2020-Feb-21 15:08 155 2 gusting 3 3.3
2020-Feb-21 15:03 169 2 gusting 3 3.3
2020-Feb-21 14:58 211 2 gusting 4 3.3
2020-Feb-21 14:53 147 3 gusting 5 3.3
2020-Feb-21 14:48 143 3 gusting 5 3.3
2020-Feb-21 14:43 150 3 gusting 5 3.3
2020-Feb-21 14:38 191 3 gusting 5 3.3
2020-Feb-21 14:33 195 3 gusting 5 3.3
2020-Feb-21 14:28 147 3 gusting 5 3.3
2020-Feb-21 14:23 129 3 gusting 5 3.3
2020-Feb-21 14:18 148 3 gusting 4 3.3
2020-Feb-21 14:13 148 2 gusting 4 3.3
2020-Feb-21 14:08 143 2 gusting 4 3.3
2020-Feb-21 14:03 150 2 gusting 4 3.3
2020-Feb-21 13:58 149 2 gusting 4 3.3
2020-Feb-21 13:53 151 3 gusting 5 3.3
2020-Feb-21 13:48 186 4 gusting 5 3.3
2020-Feb-21 13:43 154 4 gusting 6 3.3
2020-Feb-21 13:38 154 5 gusting 6 3.3
2020-Feb-21 13:33 148 5 gusting 6 3.3
2020-Feb-21 13:28 150 4 gusting 6 3.3
2020-Feb-21 13:23 145 3 gusting 6 3.3
2020-Feb-21 13:18 207 4 gusting 6 3.3
2020-Feb-21 13:13 143 4 gusting 6 3.3
2020-Feb-21 13:08 145 3 gusting 5 3.3
2020-Feb-21 13:03 218 3 gusting 5 3.3
2020-Feb-21 12:58 205 3 gusting 5 3.3
2020-Feb-21 12:53 155 3 gusting 5 3.3
2020-Feb-21 12:48 174 3 gusting 5 3.3
2020-Feb-21 12:43 202 4 gusting 5 3.3
2020-Feb-21 12:38 200 3 gusting 5 3.3
2020-Feb-21 12:33 198 3 gusting 5 3.3
2020-Feb-21 12:28 148 3 gusting 5 3.3
2020-Feb-21 12:23 131 2 gusting 4 3.3
2020-Feb-21 12:18 143 1 gusting 3 3.3
2020-Feb-21 12:13 203 1 gusting 3 3.3
2020-Feb-21 12:08 198 1 gusting 2 3.3
2020-Feb-21 12:03 205 2 gusting 3 3.9
2020-Feb-21 11:58 195 2 gusting 3 3.9
2020-Feb-21 11:53 157 1 gusting 2 3.9
2020-Feb-21 11:48 131 1 gusting 2 3.9
2020-Feb-21 11:43 145 0 gusting 1 3.3
2020-Feb-21 11:38 199 0 gusting 1 3.3
2020-Feb-21 11:33 255 1 gusting 3 3.3
2020-Feb-21 11:28 266 2 gusting 3 3.3
2020-Feb-21 11:23 262 2 gusting 3 2.8
2020-Feb-21 11:18 253 2 gusting 4 3.3
2020-Feb-21 11:13 240 2 gusting 5 3.3
2020-Feb-21 11:08 207 2 gusting 5 3.3
2020-Feb-21 11:03 193 2 gusting 4 3.3
2020-Feb-21 10:58 219 3 gusting 5 3.3
2020-Feb-21 10:53 209 3 gusting 5 3.3
2020-Feb-21 10:48 220 3 gusting 5 3.3
2020-Feb-21 10:43 162 4 gusting 5 3.3
2020-Feb-21 10:38 195 3 gusting 5 3.3
2020-Feb-21 10:33 197 2 gusting 5 3.9
2020-Feb-21 10:28 149 3 gusting 5 3.3
2020-Feb-21 10:23 211 3 gusting 5 3.9
2020-Feb-21 10:18 191 3 gusting 5 3.9
2020-Feb-21 10:13 198 2 gusting 5 3.9
2020-Feb-21 10:08 191 1 gusting 3 3.9
2020-Feb-21 10:03 174 1 gusting 2 3.9
2020-Feb-21 09:58 219 2 gusting 2 3.9
2020-Feb-21 09:53 137 1 gusting 2 3.3
2020-Feb-21 09:48 134 0 gusting 2 3.3
2020-Feb-21 09:43 239 1 gusting 2 3.3
2020-Feb-21 09:38 252 2 gusting 4 3.3
2020-Feb-21 09:32 217 3 gusting 5 3.3
2020-Feb-21 09:27 231 3 gusting 5 3.3
2020-Feb-21 09:22 224 3 gusting 5 3.9
2020-Feb-21 09:18 208 2 gusting 5 3.9
2020-Feb-21 09:12 188 2 gusting 4 3.9
2020-Feb-21 09:07 216 2 gusting 3 3.9
2020-Feb-21 09:02 197 1 gusting 3 3.9
2020-Feb-21 08:57 184 1 gusting 3 3.9
2020-Feb-21 08:52 146 1 gusting 2 3.9
2020-Feb-21 08:47 150 2 gusting 2 3.9
2020-Feb-21 08:42 213 1 gusting 2 3.9
2020-Feb-21 08:37 212 2 gusting 4 3.9
2020-Feb-21 08:32 233 3 gusting 5 3.3
2020-Feb-21 08:27 256 3 gusting 5 3.3
2020-Feb-21 08:22 232 3 gusting 5 3.9
2020-Feb-21 08:17 212 3 gusting 5 3.9
2020-Feb-21 08:12 209 3 gusting 4 3.9
2020-Feb-21 08:07 163 2 gusting 3 3.9
2020-Feb-21 08:02 195 2 gusting 2 3.9
2020-Feb-21 07:57 201 1 gusting 2 3.9
2020-Feb-21 07:52 153 0 gusting 1 3.9
2020-Feb-21 07:47 211 1 gusting 1 3.9
2020-Feb-21 07:42 179 1 gusting 1 3.9
2020-Feb-21 07:37 193 1 gusting 3 3.9
2020-Feb-21 07:32 158 1 gusting 3 3.9
2020-Feb-21 07:27 224 2 gusting 4 3.9
2020-Feb-21 07:22 229 3 gusting 4 3.9
2020-Feb-21 07:17 207 3 gusting 5 3.9
2020-Feb-21 07:12 208 4 gusting 6 3.9
2020-Feb-21 07:07 198 4 gusting 6 3.9
2020-Feb-21 07:02 200 4 gusting 6 3.9
2020-Feb-21 06:57 196 3 gusting 5 3.9
2020-Feb-21 06:52 203 3 gusting 6 3.9
2020-Feb-21 06:47 199 4 gusting 6 4.4
2020-Feb-21 06:42 150 4 gusting 6 4.4
2020-Feb-21 06:37 145 4 gusting 6 4.4
2020-Feb-21 06:32 152 2 gusting 6 4.4
2020-Feb-21 06:27 200 2 gusting 4 4.4
2020-Feb-21 06:22 148 2 gusting 3 4.4
2020-Feb-21 06:17 159 2 gusting 3 5.0
2020-Feb-21 06:12 198 2 gusting 3 5.0
2020-Feb-21 06:07 188 2 gusting 3 5.0
2020-Feb-21 06:02 199 2 gusting 3 5.0
2020-Feb-21 05:57 203 2 gusting 3 5.0
2020-Feb-21 05:52 198 2 gusting 3 5.0
2020-Feb-21 05:47 197 2 gusting 3 5.0
2020-Feb-21 05:42 203 3 gusting 3 5.0
2020-Feb-21 05:37 214 3 gusting 3 5.0
2020-Feb-21 05:32 207 3 gusting 4 5.0
2020-Feb-21 05:27 200 3 gusting 4 5.0
2020-Feb-21 05:22 200 2 gusting 3 5.0
2020-Feb-21 05:17 204 3 gusting 3 5.0
2020-Feb-21 05:12 203 3 gusting 4 5.6
2020-Feb-21 05:07 203 3 gusting 5 5.6
2020-Feb-21 05:02 200 2 gusting 5 5.6
2020-Feb-21 04:57 197 2 gusting 3 5.6
2020-Feb-21 04:52 151 1 gusting 3 5.6
2020-Feb-21 04:47 198 1 gusting 2 5.6
2020-Feb-21 04:42 207 2 gusting 2 6.1
2020-Feb-21 04:37 193 2 gusting 2 6.1
2020-Feb-21 04:32 200 2 gusting 3 6.1
2020-Feb-21 04:27 188 2 gusting 3 6.1
2020-Feb-21 04:22 214 2 gusting 3 6.1
2020-Feb-21 04:17 218 1 gusting 3 6.1
2020-Feb-21 04:12 214 1 gusting 2 6.1
2020-Feb-21 04:07 195 1 gusting 2 6.1
2020-Feb-21 04:02 216 2 gusting 2 6.1
2020-Feb-21 03:57 205 1 gusting 2 6.1
2020-Feb-21 03:52 200 0 gusting 2 6.1
2020-Feb-21 03:47 270 0 gusting 1 6.1
2020-Feb-21 03:41 206 0 gusting 1 6.1
2020-Feb-21 03:36 255 0 gusting 1 6.1
2020-Feb-21 03:31 206 0 gusting 1 6.1
2020-Feb-21 03:26 210 0 gusting 1 6.1
2020-Feb-21 03:21 264 6.1
2020-Feb-21 03:16 262 6.1
2020-Feb-21 03:11 256 6.1
2020-Feb-21 03:06 259 0 gusting 3 6.1
2020-Feb-21 03:01 237 1 gusting 3 6.1
2020-Feb-21 02:56 241 1 gusting 3 6.7
2020-Feb-21 02:51 262 2 gusting 5 6.7
2020-Feb-21 02:46 241 2 gusting 5 6.7
2020-Feb-21 02:41 200 2 gusting 5 6.7
2020-Feb-21 02:36 258 3 gusting 7 6.7
2020-Feb-21 02:31 273 4 gusting 7 6.7
2020-Feb-21 02:26 295 5 gusting 9 6.7
2020-Feb-21 02:21 288 6 gusting 10 6.7
2020-Feb-21 02:16 280 6 gusting 10 6.7
2020-Feb-21 02:11 284 6 gusting 9 6.7
2020-Feb-21 02:06 283 6 gusting 9 6.7
2020-Feb-21 02:01 305 6 gusting 9 6.7
2020-Feb-21 01:56 286 5 gusting 9 6.7
2020-Feb-21 01:51 288 5 gusting 8 6.7
2020-Feb-21 01:46 287 6 gusting 8 6.7
2020-Feb-21 01:41 271 5 gusting 8 7.2
2020-Feb-21 01:36 283 5 gusting 8 7.2
2020-Feb-21 01:31 289 5 gusting 8 7.2
2020-Feb-21 01:26 286 6 gusting 10 7.2
2020-Feb-21 01:21 292 6 gusting 10 7.2
2020-Feb-21 01:16 290 5 gusting 9 7.8
2020-Feb-21 01:11 277 5 gusting 7 7.8
2020-Feb-21 01:06 274 5 gusting 8 7.8
2020-Feb-21 01:01 259 4 gusting 8 7.8
2020-Feb-21 00:56 283 4 gusting 7 8.3
2020-Feb-21 00:51 276 4 gusting 9 8.3
2020-Feb-21 00:46 293 5 gusting 11 8.3
2020-Feb-21 00:41 277 5 gusting 11 8.3
2020-Feb-21 00:36 290 5 gusting 10 8.3
2020-Feb-21 00:31 323 5 gusting 9 8.3
2020-Feb-21 00:26 291 4 gusting 6 8.9
2020-Feb-21 00:21 299 5 gusting 7 8.9
2020-Feb-21 00:16 312 4 gusting 7 8.9
2020-Feb-21 00:11 274 4 gusting 7 8.9
2020-Feb-21 00:06 320 5 gusting 9 8.9
2020-Feb-21 00:01 312 6 gusting 9 8.9
2020-Feb-20 23:56 282 6 gusting 9 8.9
2020-Feb-20 23:51 305 6 gusting 8 9.4
2020-Feb-20 23:46 311 6 gusting 8 9.4
2020-Feb-20 23:41 318 5 gusting 6 9.4
2020-Feb-20 23:36 311 5 gusting 8 9.4
2020-Feb-20 23:31 302 5 gusting 8 9.4
2020-Feb-20 23:26 311 5 gusting 8 9.4
2020-Feb-20 23:21 312 4 gusting 6 9.4
2020-Feb-20 23:16 296 4 gusting 6 9.4
2020-Feb-20 23:11 309 5 gusting 6 9.4
2020-Feb-20 23:06 318 6 gusting 8 9.4
2020-Feb-20 23:01 310 6 gusting 8 9.4
2020-Feb-20 22:56 314 5 gusting 6 9.4
2020-Feb-20 22:51 302 6 gusting 6 8.9
2020-Feb-20 22:46 308 6 gusting 8 8.9
2020-Feb-20 22:41 310 5 gusting 8 8.3
2020-Feb-20 22:36 309 5 gusting 6 8.3
2020-Feb-20 22:31 309 5 gusting 6 8.3
2020-Feb-20 22:26 324 5 gusting 7 8.3
2020-Feb-20 22:20 312 6 gusting 8 8.3
2020-Feb-20 22:15 309 6 gusting 8 8.3
2020-Feb-20 22:10 312 6 gusting 7 8.9
2020-Feb-20 22:05 331 5 gusting 6 8.9
2020-Feb-20 22:00 314 5 gusting 6 8.9